Terminal Aerodrome Forecast
Issued by NWS

Home | Current Version | Previous Version | Text Only | Print | Product List | Glossary On
Versions: 1 2 3 4 5 6 7 8 9 10 11 12 13
000
FTUS44 KEPZ 220537
TAFTCS
TAF
KTCS 220537Z 2206/2306 29005KT P6SM SKC
     FM221800 16007KT P6SM FEW250
     FM222100 21014G20KT P6SM SCT250
     FM230200 24008KT P6SM FEW250=

USA.gov is the U.S. government's official web portal to all federal, state and local government web resources and services.